Unbenanntes Dokument
Flugplatz Bielefeld Platzwetter

 

Aktuelles Platzwetter am Flugplatz Bielefeld EDLI

29.03.17 ,15:01 Uhr

METAR EDLI 291500Z 27011KT 9999 ///046 13/09 Q1023

 

Windwerte

 

Wolkenuntergrenzen

Wind aktuell:280 ° mit 14 kt
Wind 10 min Extrem:
240 ° bis 300 ° mit 7 kt bis 19 kt
Seitenwindkomponente: 3.2 kt
Wolkengrenze 1: 4600 ft
Wolkengrenze 2:
Wolkengrenze 3:

Webcam

Temperatur

       

Sichtweite:

20.000 Meter

13.5 °C
Taupunkt: 9.7 °C
Luftfeuchtigkeit: 77 %

Luftdruck:

QNH: 1023 hPa (30.21 in Hg)
QFE: 1007 hPa (29.74 in Hg)

Diese Daten werden automatisch ermittelt bzw. übertragen und sind nicht geprüft. Für die Richtigkeit wird daher keine Gewähr übernommen. Sie ersetzen im übrigen nicht die Flugwetterberatung. Alle Zeitangaben beziehen sich auf UTC. Die Seite wird einmal die Minute aktualisiert! Sollten Sie ein ältere Seite haben, so drücken Sie bitte auf den Reload Button Ihres Browsers!